createdAt,value
2017-05-15T00:00:04.005Z,0
2017-05-15T00:01:18.646Z,0
2017-05-15T00:02:04.082Z,0
2017-05-15T00:03:03.775Z,0
2017-05-15T00:04:03.794Z,0
2017-05-15T00:05:03.819Z,0
2017-05-15T00:06:03.849Z,0
2017-05-15T00:07:03.863Z,0
2017-05-15T00:08:04.188Z,0
2017-05-15T00:09:03.906Z,0
2017-05-15T00:10:03.935Z,0
2017-05-15T00:11:03.955Z,0
2017-05-15T00:12:18.898Z,0
2017-05-15T00:14:04.325Z,0
2017-05-15T00:15:04.349Z,0
2017-05-15T00:17:19.011Z,0
2017-05-15T00:18:04.417Z,0
2017-05-15T00:19:04.443Z,0
2017-05-15T00:20:04.469Z,0
2017-05-15T00:21:04.184Z,0
2017-05-15T00:22:04.515Z,0
2017-05-15T00:23:04.287Z,0
2017-05-15T00:25:19.194Z,0
2017-05-15T00:26:04.602Z,0
2017-05-15T00:27:04.321Z,0
2017-05-15T00:28:19.320Z,0
2017-05-15T00:29:04.669Z,0
2017-05-15T00:31:04.415Z,0
2017-05-15T00:32:19.052Z,0
2017-05-15T00:33:04.763Z,0
2017-05-15T00:34:04.784Z,0
2017-05-15T00:35:04.808Z,0
2017-05-15T00:36:04.831Z,0
2017-05-15T00:37:04.853Z,0
2017-05-15T00:38:04.874Z,0
2017-05-15T00:39:04.900Z,0
2017-05-15T00:40:04.619Z,0
2017-05-15T00:41:04.942Z,0
2017-05-15T00:42:05.014Z,0
2017-05-15T00:43:04.987Z,0
2017-05-15T00:44:05.017Z,0
2017-05-15T00:45:19.650Z,0
2017-05-15T00:47:05.081Z,0
2017-05-15T00:48:04.799Z,0
2017-05-15T00:49:05.130Z,0
2017-05-15T00:50:04.845Z,0
2017-05-15T00:51:05.176Z,0
2017-05-15T00:52:05.195Z,0
2017-05-15T00:53:19.539Z,0
2017-05-15T00:54:05.238Z,0
2017-05-15T00:55:05.265Z,0
2017-05-15T00:56:19.899Z,0
2017-05-15T00:57:05.307Z,0
2017-05-15T00:58:19.950Z,0
2017-05-15T00:59:19.975Z,0
2017-05-15T01:00:05.375Z,0
2017-05-15T01:01:05.396Z,0
2017-05-15T01:02:05.418Z,0
2017-05-15T01:03:05.140Z,0
2017-05-15T01:04:20.080Z,0
2017-05-15T01:05:05.183Z,0
2017-05-15T01:06:05.508Z,0
2017-05-15T01:08:20.174Z,0
2017-05-15T01:09:05.577Z,0
2017-05-15T01:10:05.298Z,0
2017-05-15T01:11:05.626Z,0
2017-05-15T01:12:20.260Z,0
2017-05-15T01:13:05.671Z,0
2017-05-15T01:14:05.387Z,0
2017-05-15T01:16:05.735Z,0
2017-05-15T01:17:05.454Z,0
2017-05-15T01:19:05.804Z,0
2017-05-15T01:20:20.443Z,0
2017-05-15T01:21:05.851Z,0
2017-05-15T01:22:05.271Z,0
2017-05-15T01:23:05.892Z,0
2017-05-15T01:24:05.613Z,0
2017-05-15T01:25:05.331Z,0
2017-05-15T01:26:05.959Z,0
2017-05-15T01:27:05.987Z,0
2017-05-15T01:28:20.623Z,0
2017-05-15T01:29:06.031Z,0
2017-05-15T01:30:06.052Z,0
2017-05-15T01:31:20.693Z,0
2017-05-15T01:32:06.107Z,0
2017-05-15T01:33:06.127Z,0
2017-05-15T01:34:06.143Z,0
2017-05-15T01:35:06.169Z,0
2017-05-15T01:36:20.804Z,0
2017-05-15T01:37:06.211Z,0
2017-05-15T01:38:06.235Z,0
2017-05-15T01:39:06.260Z,0
2017-05-15T01:40:06.328Z,0
2017-05-15T01:41:06.300Z,0
2017-05-15T01:42:06.326Z,0
2017-05-15T01:43:20.964Z,0
2017-05-15T01:44:06.373Z,0
2017-05-15T01:45:06.397Z,0
2017-05-15T01:46:06.415Z,0
2017-05-15T01:47:06.440Z,0
2017-05-15T01:48:21.076Z,0
2017-05-15T01:49:06.487Z,0
2017-05-15T01:50:06.508Z,0
2017-05-15T01:51:06.228Z,0
2017-05-15T01:52:21.169Z,0
2017-05-15T01:54:06.601Z,0
2017-05-15T01:55:06.632Z,0
2017-05-15T01:56:06.642Z,0
2017-05-15T01:57:06.678Z,0
2017-05-15T01:58:06.692Z,0
2017-05-15T01:59:06.712Z,0
2017-05-15T02:00:06.735Z,0
2017-05-15T02:01:06.758Z,0
2017-05-15T02:02:21.396Z,0
2017-05-15T02:03:06.803Z,0
2017-05-15T02:04:06.836Z,0
2017-05-15T02:05:21.465Z,0
2017-05-15T02:06:06.878Z,0
2017-05-15T02:07:21.514Z,0
2017-05-15T02:08:06.918Z,0
2017-05-15T02:09:06.949Z,0
2017-05-15T02:10:06.658Z,0
2017-05-15T02:11:06.987Z,0
2017-05-15T02:12:07.064Z,0
2017-05-15T02:13:07.032Z,0
2017-05-15T02:14:07.061Z,0
2017-05-15T02:15:07.084Z,0
2017-05-15T02:16:07.103Z,0
2017-05-15T02:17:06.822Z,0
2017-05-15T02:18:21.765Z,0
2017-05-15T02:19:21.789Z,0
2017-05-15T02:20:07.193Z,0
2017-05-15T02:21:06.915Z,0
2017-05-15T02:22:07.239Z,0
2017-05-15T02:23:06.959Z,0
2017-05-15T02:24:07.286Z,0
2017-05-15T02:25:07.056Z,0
2017-05-15T02:26:07.031Z,0
2017-05-15T02:27:21.975Z,0
2017-05-15T02:28:07.376Z,0
2017-05-15T02:29:21.713Z,0
2017-05-15T02:30:07.424Z,0
2017-05-15T02:31:07.153Z,0
2017-05-15T02:32:22.083Z,0
2017-05-15T02:33:22.109Z,0
2017-05-15T02:34:07.216Z,0
2017-05-15T02:35:07.231Z,0
2017-05-15T02:36:07.564Z,0
2017-05-15T02:37:07.586Z,0
2017-05-15T02:38:07.607Z,0
2017-05-15T02:39:21.946Z,0
2017-05-15T02:40:07.044Z,0
2017-05-15T02:41:07.676Z,0
2017-05-15T02:42:07.697Z,0
2017-05-15T02:43:07.716Z,0
2017-05-15T02:44:07.742Z,4
2017-05-15T02:45:07.763Z,4
2017-05-15T02:46:07.786Z,0
2017-05-15T02:47:07.811Z,0
2017-05-15T02:48:07.833Z,4
2017-05-15T02:49:07.857Z,4
2017-05-15T02:50:07.877Z,4
2017-05-15T02:51:07.904Z,4
2017-05-15T02:52:22.540Z,4
2017-05-15T02:53:07.947Z,8
2017-05-15T02:54:07.971Z,4
2017-05-15T02:55:22.610Z,8
2017-05-15T02:56:07.713Z,8
2017-05-15T02:57:08.040Z,12
2017-05-15T02:58:08.062Z,8
2017-05-15T02:59:08.120Z,12
2017-05-15T03:00:08.106Z,8
2017-05-15T03:01:22.750Z,12
2017-05-15T03:02:22.770Z,12
2017-05-15T03:03:08.178Z,16
2017-05-15T03:04:08.197Z,16
2017-05-15T03:05:07.919Z,16
2017-05-15T03:06:07.940Z,20
2017-05-15T03:08:08.292Z,24
2017-05-15T03:09:08.314Z,24
2017-05-15T03:10:07.729Z,28
2017-05-15T03:11:22.671Z,28
2017-05-15T03:12:08.076Z,28
2017-05-15T03:13:08.405Z,32
2017-05-15T03:14:08.427Z,32
2017-05-15T03:15:08.452Z,36
2017-05-15T03:16:08.473Z,40
2017-05-15T03:17:08.496Z,44
2017-05-15T03:18:08.567Z,44
2017-05-15T03:19:23.159Z,52
2017-05-15T03:20:23.194Z,56
2017-05-15T03:21:08.587Z,60
2017-05-15T03:22:08.307Z,60
2017-05-15T03:23:08.634Z,68
2017-05-15T03:24:08.655Z,68
2017-05-15T03:25:08.681Z,72
2017-05-15T03:27:23.342Z,88
2017-05-15T03:28:08.747Z,88
2017-05-15T03:29:08.821Z,96
2017-05-15T03:30:08.792Z,108
2017-05-15T03:31:08.821Z,112
2017-05-15T03:32:08.839Z,120
2017-05-15T03:33:08.863Z,132
2017-05-15T03:34:08.888Z,144
2017-05-15T03:35:08.956Z,156
2017-05-15T03:36:08.932Z,168
2017-05-15T03:37:23.568Z,192
2017-05-15T03:38:09.022Z,204
2017-05-15T03:39:23.618Z,236
2017-05-15T03:41:09.043Z,292
2017-05-15T03:42:23.381Z,340
2017-05-15T03:43:09.091Z,368
2017-05-15T03:44:08.808Z,408
2017-05-15T03:45:09.136Z,444
2017-05-15T03:46:09.157Z,468
2017-05-15T03:47:09.181Z,488
2017-05-15T03:48:08.898Z,504
2017-05-15T03:49:08.931Z,512
2017-05-15T03:50:23.564Z,520
2017-05-15T03:51:09.271Z,528
2017-05-15T03:52:09.321Z,548
2017-05-15T03:53:09.319Z,564
2017-05-15T03:54:23.960Z,584
2017-05-15T03:55:23.985Z,596
2017-05-15T03:56:09.387Z,596
2017-05-15T03:57:09.413Z,596
2017-05-15T03:58:09.129Z,604
2017-05-15T03:59:09.506Z,620
2017-05-15T04:00:09.484Z,632
2017-05-15T04:01:09.508Z,644
2017-05-15T04:02:09.529Z,664
2017-05-15T04:03:09.546Z,672
2017-05-15T04:04:09.573Z,676
2017-05-15T04:05:09.597Z,676
2017-05-15T04:06:09.618Z,668
2017-05-15T04:07:09.649Z,668
2017-05-15T04:08:09.416Z,664
2017-05-15T04:09:24.306Z,668
2017-05-15T04:10:09.713Z,672
2017-05-15T04:11:09.732Z,672
2017-05-15T04:13:09.780Z,688
2017-05-15T04:14:24.419Z,696
2017-05-15T04:15:09.828Z,700
2017-05-15T04:16:09.550Z,700
2017-05-15T04:17:09.571Z,704
2017-05-15T04:18:09.899Z,708
2017-05-15T04:19:09.617Z,708
2017-05-15T04:20:09.335Z,708
2017-05-15T04:21:09.964Z,712
2017-05-15T04:22:24.604Z,728
2017-05-15T04:23:10.009Z,740
2017-05-15T04:24:10.036Z,760
2017-05-15T04:25:24.371Z,788
2017-05-15T04:26:24.696Z,816
2017-05-15T04:27:09.801Z,840
2017-05-15T04:28:10.125Z,876
2017-05-15T04:29:09.845Z,924
2017-05-15T04:30:24.788Z,980
2017-05-15T04:31:09.896Z,1020
2017-05-15T04:33:09.944Z,1116
2017-05-15T04:34:09.960Z,1160
2017-05-15T04:35:09.993Z,1224
2017-05-15T04:36:10.007Z,1304
2017-05-15T04:37:10.334Z,1400
2017-05-15T04:38:24.974Z,1536
2017-05-15T04:39:10.391Z,1632
2017-05-15T04:40:24.714Z,1892
2017-05-15T04:41:25.046Z,2132
2017-05-15T04:42:10.146Z,2308
2017-05-15T04:44:10.503Z,2668
2017-05-15T04:45:10.522Z,2900
2017-05-15T04:46:25.161Z,3288
2017-05-15T04:47:10.571Z,3584
2017-05-15T04:48:10.587Z,3976
2017-05-15T04:49:10.610Z,4348
2017-05-15T04:50:10.636Z,4744
2017-05-15T04:51:10.353Z,5216
2017-05-15T04:52:10.684Z,5700
2017-05-15T04:53:10.712Z,6128
2017-05-15T04:54:10.435Z,6516
2017-05-15T04:55:09.842Z,6776
2017-05-15T04:56:10.475Z,6948
2017-05-15T04:57:10.504Z,7076
2017-05-15T04:58:10.829Z,7204
2017-05-15T04:59:10.848Z,7252
2017-05-15T05:01:10.897Z,7524
2017-05-15T05:02:25.231Z,7812
2017-05-15T05:03:10.944Z,8296
2017-05-15T05:04:10.968Z,9308
2017-05-15T05:05:10.990Z,10552
2017-05-15T05:06:11.021Z,24704
2017-05-15T05:07:11.037Z,26400
2017-05-15T05:08:10.452Z,38208
2017-05-15T05:09:11.091Z,42880
2017-05-15T05:10:10.808Z,38656
2017-05-15T05:11:11.141Z,47584
2017-05-15T05:12:11.185Z,51360
2017-05-15T05:14:11.208Z,53952
2017-05-15T05:17:25.906Z,46656
2017-05-15T05:18:11.319Z,48128
2017-05-15T05:19:11.041Z,52352
2017-05-15T05:20:11.370Z,56288
2017-05-15T05:21:11.403Z,55648
2017-05-15T05:22:11.426Z,54944
2017-05-15T05:23:26.074Z,54880
2017-05-15T05:24:11.480Z,56608
2017-05-15T05:25:11.205Z,58080
2017-05-15T05:26:11.237Z,57568
2017-05-15T05:27:11.565Z,57152
2017-05-15T05:28:11.595Z,60832
2017-05-15T05:30:11.654Z,58752
2017-05-15T05:31:11.687Z,57536
2017-05-15T05:32:11.416Z,59392
2017-05-15T05:33:11.749Z,60736
2017-05-15T05:34:11.780Z,60096
2017-05-15T05:35:11.811Z,61472
2017-05-15T05:36:11.843Z,59264
2017-05-15T05:37:11.872Z,58560
2017-05-15T05:38:11.606Z,61696
2017-05-15T05:39:26.262Z,64448
2017-05-15T05:40:11.969Z,65056
2017-05-15T05:41:12.001Z,62048
2017-05-15T05:42:26.655Z,59872
2017-05-15T05:43:12.073Z,61056
2017-05-15T05:44:12.109Z,60928
2017-05-15T05:45:12.152Z,59584
2017-05-15T05:46:26.789Z,59648
2017-05-15T05:47:11.941Z,60576
2017-05-15T05:48:11.930Z,62400
2017-05-15T05:49:26.896Z,68128
2017-05-15T05:50:12.007Z,70016
2017-05-15T05:51:12.037Z,69536
2017-05-15T05:52:12.418Z,68768
2017-05-15T05:53:12.417Z,63584
2017-05-15T05:54:12.439Z,61344
2017-05-15T05:55:12.477Z,35008
2017-05-15T05:56:12.506Z,23360
2017-05-15T05:57:12.547Z,36128
2017-05-15T05:58:12.583Z,43648
2017-05-15T05:59:12.608Z,25056
2017-05-15T06:00:27.267Z,54720
2017-05-15T06:01:12.677Z,66016
2017-05-15T06:03:12.745Z,72288
2017-05-15T06:05:27.432Z,70848
2017-05-15T06:06:12.544Z,71552
2017-05-15T06:07:12.579Z,72128
2017-05-15T06:08:12.612Z,71200
2017-05-15T06:09:27.269Z,72192
2017-05-15T06:10:12.681Z,73184
2017-05-15T06:11:12.717Z,63488
2017-05-15T06:12:12.751Z,61984
2017-05-15T06:14:12.826Z,67136
2017-05-15T06:15:13.155Z,70336
2017-05-15T06:16:13.192Z,62368
2017-05-15T06:18:27.884Z,67808
2017-05-15T06:19:12.993Z,70432
2017-05-15T06:21:27.988Z,70112
2017-05-15T06:22:13.149Z,68128
2017-05-15T06:23:13.448Z,68672
2017-05-15T06:24:13.473Z,69536
2017-05-15T06:25:13.509Z,69632
2017-05-15T06:26:13.545Z,70784
2017-05-15T06:27:27.901Z,69920
2017-05-15T06:28:13.618Z,68736
2017-05-15T06:29:28.273Z,67328
2017-05-15T06:30:28.004Z,68288
2017-05-15T06:31:13.424Z,69664
2017-05-15T06:32:13.760Z,72864
2017-05-15T06:33:13.493Z,72608
2017-05-15T06:34:13.539Z,70048
2017-05-15T06:35:13.873Z,71392
2017-05-15T06:37:28.561Z,70048
2017-05-15T06:38:13.993Z,66304
2017-05-15T06:39:14.014Z,63616
2017-05-15T06:40:13.746Z,63936
2017-05-15T06:41:14.086Z,65824
2017-05-15T06:42:13.822Z,67328
2017-05-15T06:43:14.161Z,68384
2017-05-15T06:44:28.883Z,69664
2017-05-15T06:45:14.232Z,69376
2017-05-15T06:46:28.889Z,69344
2017-05-15T06:47:14.307Z,67904
2017-05-15T06:48:13.740Z,67296
2017-05-15T06:49:14.379Z,65088
2017-05-15T06:50:14.113Z,61024
2017-05-15T06:51:14.154Z,59424
2017-05-15T06:52:29.127Z,65760
2017-05-15T06:53:14.528Z,67776
2017-05-15T06:54:14.567Z,65664
2017-05-15T06:55:14.651Z,67424
2017-05-15T06:56:14.332Z,68544
2017-05-15T06:57:14.372Z,66752
2017-05-15T06:58:14.407Z,63552
2017-05-15T06:59:14.748Z,62080
2017-05-15T07:00:14.784Z,56224
2017-05-15T07:01:14.824Z,55808
2017-05-15T07:02:29.479Z,59456
2017-05-15T07:03:14.592Z,56128
2017-05-15T07:04:14.330Z,63168
2017-05-15T07:05:29.286Z,64992
2017-05-15T07:06:14.399Z,64896
2017-05-15T07:08:14.780Z,62592
2017-05-15T07:09:14.815Z,58304
2017-05-15T07:10:14.853Z,58176
2017-05-15T07:11:14.581Z,65952
2017-05-15T07:12:15.227Z,64960
2017-05-15T07:13:14.957Z,60256
2017-05-15T07:14:29.315Z,58464
2017-05-15T07:15:15.336Z,58240
2017-05-15T07:16:29.994Z,58368
2017-05-15T07:17:15.407Z,57344
2017-05-15T07:18:14.840Z,58592
2017-05-15T07:19:15.189Z,58240
2017-05-15T07:20:15.518Z,59136
2017-05-15T07:23:15.635Z,60928
2017-05-15T07:24:30.292Z,62720
2017-05-15T07:25:15.708Z,61568
2017-05-15T07:26:15.168Z,58368
2017-05-15T07:27:15.479Z,60864
2017-05-15T07:28:15.817Z,64224
2017-05-15T07:29:15.853Z,61888
2017-05-15T07:30:15.894Z,63776
2017-05-15T07:31:15.624Z,61344
2017-05-15T07:32:30.587Z,62784
2017-05-15T07:33:16.015Z,62336
2017-05-15T07:34:30.357Z,59296
2017-05-15T07:35:16.077Z,60864
2017-05-15T07:37:15.851Z,60704
2017-05-15T07:38:30.814Z,61856
2017-05-15T07:39:16.240Z,47296
2017-05-15T07:40:30.888Z,60768
2017-05-15T07:41:16.007Z,57568
2017-05-15T07:42:16.039Z,57760
2017-05-15T07:43:16.387Z,57440
2017-05-15T07:44:31.042Z,21632
2017-05-15T07:45:16.454Z,20320
2017-05-15T07:46:16.493Z,45184
2017-05-15T07:47:16.229Z,19872
2017-05-15T07:48:16.567Z,18336
2017-05-15T07:49:16.610Z,24512
2017-05-15T07:50:16.642Z,20480
2017-05-15T07:51:16.679Z,30880
2017-05-15T07:52:31.334Z,37696
2017-05-15T07:53:16.446Z,25856
2017-05-15T07:54:16.481Z,20160
2017-05-15T07:55:16.825Z,20768
2017-05-15T07:56:31.476Z,21760
2017-05-15T07:57:16.587Z,20288
2017-05-15T07:58:16.627Z,35488
2017-05-15T07:59:16.966Z,34304
2017-05-15T08:00:16.697Z,50240
2017-05-15T08:01:17.045Z,26496
2017-05-15T08:02:16.764Z,27584
2017-05-15T08:03:16.498Z,42656
2017-05-15T08:04:16.841Z,35520
2017-05-15T08:05:16.564Z,51808
2017-05-15T08:07:16.639Z,24128
2017-05-15T08:08:17.297Z,25024
2017-05-15T08:09:17.015Z,37312
2017-05-15T08:10:17.043Z,33504
2017-05-15T08:12:32.033Z,40992
2017-05-15T08:13:17.148Z,30240
2017-05-15T08:14:17.486Z,22080
2017-05-15T08:15:17.221Z,17888
2017-05-15T08:16:17.550Z,15852
2017-05-15T08:17:16.978Z,14808
2017-05-15T08:18:17.622Z,14888
2017-05-15T08:19:17.353Z,13836
2017-05-15T08:20:17.382Z,12284
2017-05-15T08:21:17.420Z,10924
2017-05-15T08:22:17.450Z,10272
2017-05-15T08:23:17.790Z,10672
2017-05-15T08:24:17.823Z,15924
2017-05-15T08:25:17.857Z,14584
2017-05-15T08:27:32.236Z,17344
2017-05-15T08:28:17.957Z,16032
2017-05-15T08:29:17.684Z,16692
2017-05-15T08:30:32.644Z,17120
2017-05-15T08:31:17.749Z,15748
2017-05-15T08:32:18.088Z,14332
2017-05-15T08:33:18.124Z,13908
2017-05-15T08:34:32.771Z,17824
2017-05-15T08:35:18.185Z,24960
2017-05-15T08:36:17.913Z,21568
2017-05-15T08:37:18.247Z,15960
2017-05-15T08:41:18.375Z,23936
2017-05-15T08:42:18.462Z,24096
2017-05-15T08:43:18.147Z,24064
2017-05-15T08:45:18.507Z,23712
2017-05-15T08:46:18.544Z,23840
2017-05-15T08:47:18.577Z,23968
2017-05-15T08:49:18.337Z,19040
2017-05-15T08:50:33.293Z,24704
2017-05-15T08:51:33.325Z,24416
2017-05-15T08:52:18.435Z,24320
2017-05-15T08:53:18.773Z,25152
2017-05-15T08:54:18.813Z,20288
2017-05-15T08:59:33.594Z,26400
2017-05-15T09:00:18.703Z,25728
2017-05-15T09:01:18.740Z,25632
2017-05-15T09:02:19.076Z,21024
2017-05-15T09:03:18.553Z,16192
2017-05-15T09:04:33.461Z,20800
2017-05-15T09:05:18.872Z,20160
2017-05-15T09:06:18.605Z,23968
2017-05-15T09:07:19.244Z,25472
2017-05-15T09:08:19.279Z,26048
2017-05-15T09:09:19.320Z,26272
2017-05-15T09:10:19.350Z,24864
2017-05-15T09:11:19.381Z,21408
2017-05-15T09:12:19.415Z,23968
2017-05-15T09:13:34.067Z,18112
2017-05-15T09:14:19.181Z,21792
2017-05-15T09:15:34.134Z,24544
2017-05-15T09:16:19.551Z,22208
2017-05-15T09:17:19.585Z,18176
2017-05-15T09:19:19.649Z,14860
2017-05-15T09:20:19.681Z,14528
2017-05-15T09:21:34.340Z,16700
2017-05-15T09:22:19.756Z,17184
2017-05-15T09:23:19.185Z,18368
2017-05-15T09:24:19.818Z,21312
2017-05-15T09:25:19.247Z,24512
2017-05-15T09:27:19.621Z,22176
2017-05-15T09:28:19.655Z,22336
2017-05-15T09:29:19.691Z,15800
2017-05-15T09:31:34.365Z,15188
2017-05-15T09:32:19.482Z,14496
2017-05-15T09:33:20.119Z,14168
2017-05-15T09:34:19.550Z,13244
2017-05-15T09:35:19.879Z,12464
2017-05-15T09:36:20.219Z,11916
2017-05-15T09:37:20.251Z,14324
2017-05-15T09:38:20.283Z,14336
2017-05-15T09:39:19.710Z,16068
2017-05-15T09:40:34.968Z,15980
2017-05-15T09:41:20.378Z,14392
2017-05-15T09:42:20.107Z,13700
2017-05-15T09:43:20.139Z,14128
2017-05-15T09:44:20.172Z,14000
2017-05-15T09:45:20.514Z,13148
2017-05-15T09:46:20.542Z,15504
2017-05-15T09:47:35.198Z,16764
2017-05-15T09:48:20.301Z,16760
2017-05-15T09:49:20.637Z,17312
2017-05-15T09:50:20.060Z,17568
2017-05-15T09:51:20.394Z,18016
2017-05-15T09:52:20.729Z,18240
2017-05-15T09:53:35.077Z,16740
2017-05-15T09:54:20.490Z,16960
2017-05-15T09:55:20.820Z,13168
2017-05-15T09:56:20.553Z,11660
2017-05-15T09:57:20.583Z,12420
2017-05-15T09:58:20.623Z,17856
2017-05-15T09:59:20.652Z,17120
2017-05-15T10:00:21.001Z,16416
2017-05-15T10:01:21.017Z,18176
2017-05-15T10:02:35.663Z,18336
2017-05-15T10:03:20.779Z,18880
2017-05-15T10:04:20.806Z,18944
2017-05-15T10:05:21.141Z,15160
2017-05-15T10:06:20.866Z,11296
2017-05-15T10:07:21.209Z,18176
2017-05-15T10:08:21.236Z,17984
2017-05-15T10:09:20.656Z,17760
2017-05-15T10:10:35.916Z,15836
2017-05-15T10:11:35.642Z,11984
2017-05-15T10:12:35.978Z,12112
2017-05-15T10:13:36.015Z,12664
2017-05-15T10:14:21.470Z,12284
2017-05-15T10:15:35.769Z,17568
2017-05-15T10:16:21.496Z,14588
2017-05-15T10:17:21.515Z,19712
2017-05-15T10:18:21.547Z,16512
2017-05-15T10:19:21.282Z,12356
2017-05-15T10:21:21.638Z,17760
2017-05-15T10:22:21.674Z,16528
2017-05-15T10:23:21.711Z,15416
2017-05-15T10:24:21.730Z,10812
2017-05-15T10:25:21.765Z,14280
2017-05-15T10:26:36.108Z,9172
2017-05-15T10:27:36.441Z,14564
2017-05-15T10:28:21.852Z,13888
2017-05-15T10:29:21.621Z,14892
2017-05-15T10:30:21.926Z,14892
2017-05-15T10:31:21.944Z,14792
2017-05-15T10:32:21.990Z,14652
2017-05-15T10:33:21.700Z,14300
2017-05-15T10:34:36.954Z,10500
2017-05-15T10:35:21.765Z,13992
2017-05-15T10:36:22.101Z,14004
2017-05-15T10:37:21.825Z,14140
2017-05-15T10:38:22.162Z,9608
2017-05-15T10:39:21.885Z,13940
2017-05-15T10:40:22.222Z,14540
2017-05-15T10:41:36.567Z,15256
2017-05-15T10:42:22.282Z,14364
2017-05-15T10:43:22.312Z,10500
2017-05-15T10:44:22.348Z,12776
2017-05-15T10:45:36.988Z,9268
2017-05-15T10:46:22.100Z,9208
2017-05-15T10:47:22.436Z,8396
2017-05-15T10:48:22.158Z,9180
2017-05-15T10:49:22.502Z,8212
2017-05-15T10:50:37.142Z,8872
2017-05-15T10:51:21.949Z,9852
2017-05-15T10:52:22.281Z,8344
2017-05-15T10:53:22.330Z,8216
2017-05-15T10:54:22.342Z,7352
2017-05-15T10:55:22.675Z,7244
2017-05-15T10:57:22.738Z,8420
2017-05-15T10:58:37.382Z,12704
2017-05-15T10:59:22.489Z,12416
2017-05-15T11:00:37.440Z,12972
2017-05-15T11:01:22.854Z,12108
2017-05-15T11:04:22.943Z,12516
2017-05-15T11:06:37.312Z,10688
2017-05-15T11:07:23.042Z,8252
2017-05-15T11:08:23.067Z,8092
2017-05-15T11:09:22.781Z,11824
2017-05-15T11:10:22.815Z,11492
2017-05-15T11:11:22.839Z,11392
2017-05-15T11:12:22.885Z,10168
2017-05-15T11:13:23.205Z,7552
2017-05-15T11:14:23.232Z,10248
2017-05-15T11:15:23.274Z,11524
2017-05-15T11:17:23.320Z,11492
2017-05-15T11:19:23.437Z,7276
2017-05-15T11:20:23.409Z,7124
2017-05-15T11:21:38.306Z,10192
2017-05-15T11:22:38.141Z,9912
2017-05-15T11:23:23.503Z,8932
2017-05-15T11:24:23.534Z,9336
2017-05-15T11:25:23.553Z,7324
2017-05-15T11:26:23.585Z,10148
2017-05-15T11:27:23.309Z,9840
2017-05-15T11:28:37.960Z,9532
2017-05-15T11:29:23.384Z,9308
2017-05-15T11:30:23.704Z,8836
2017-05-15T11:31:23.755Z,8572
2017-05-15T11:32:23.760Z,8308
2017-05-15T11:33:23.789Z,7976
2017-05-15T11:34:23.820Z,7708
2017-05-15T11:36:23.887Z,7424
2017-05-15T11:37:38.523Z,7388
2017-05-15T11:39:23.968Z,7332
2017-05-15T11:40:23.993Z,7628
2017-05-15T11:41:24.023Z,7492
2017-05-15T11:42:24.053Z,7544
2017-05-15T11:43:23.777Z,5724
2017-05-15T11:44:23.804Z,7360
2017-05-15T11:45:38.452Z,6016
2017-05-15T11:48:23.922Z,7056
2017-05-15T11:50:38.899Z,6976
2017-05-15T11:51:24.312Z,6896
2017-05-15T11:52:24.342Z,6808
2017-05-15T11:53:24.372Z,6648
2017-05-15T11:54:24.397Z,6720
2017-05-15T11:55:24.423Z,6736
2017-05-15T11:56:24.457Z,6872
2017-05-15T11:57:24.482Z,6980
2017-05-15T11:58:24.510Z,6820
2017-05-15T12:00:24.571Z,7200
2017-05-15T12:01:24.600Z,7284
2017-05-15T12:02:24.626Z,7092
2017-05-15T12:03:24.657Z,7080
2017-05-15T12:04:24.376Z,6936
2017-05-15T12:05:24.710Z,6856
2017-05-15T12:06:24.746Z,6724
2017-05-15T12:08:24.797Z,6756
2017-05-15T12:09:39.444Z,6748
2017-05-15T12:11:24.880Z,6776
2017-05-15T12:12:24.909Z,6860
2017-05-15T12:13:24.944Z,6964
2017-05-15T12:14:24.671Z,6940
2017-05-15T12:15:24.695Z,7124
2017-05-15T12:16:25.024Z,7112
2017-05-15T12:17:25.050Z,7416
2017-05-15T12:18:25.084Z,7340
2017-05-15T12:19:25.110Z,5560
2017-05-15T12:20:39.752Z,7036
2017-05-15T12:24:24.945Z,6748
2017-05-15T12:25:39.595Z,6604
2017-05-15T12:26:25.310Z,6312
2017-05-15T12:27:25.389Z,6464
2017-05-15T12:28:25.062Z,6560
2017-05-15T12:29:25.390Z,6644
2017-05-15T12:30:25.421Z,6684
2017-05-15T12:31:39.766Z,6916
2017-05-15T12:32:39.791Z,6996
2017-05-15T12:33:25.512Z,7008
2017-05-15T12:34:25.230Z,6124
2017-05-15T12:35:25.562Z,6816
2017-05-15T12:36:25.284Z,4964
2017-05-15T12:37:40.237Z,4644
2017-05-15T12:38:25.342Z,4600
2017-05-15T12:39:25.378Z,4596
2017-05-15T12:40:25.702Z,4676
2017-05-15T12:41:40.348Z,5004
2017-05-15T12:42:25.761Z,7268
2017-05-15T12:43:25.486Z,7908
2017-05-15T12:44:25.813Z,7908
2017-05-15T12:45:25.846Z,8052
2017-05-15T12:46:25.587Z,8080
2017-05-15T12:47:40.518Z,7336
2017-05-15T12:48:25.934Z,8048
2017-05-15T12:49:25.956Z,7708
2017-05-15T12:50:25.988Z,7584
2017-05-15T12:51:26.011Z,7440
2017-05-15T12:52:26.049Z,7696
2017-05-15T12:53:40.683Z,7672
2017-05-15T12:54:26.126Z,8124
2017-05-15T12:55:26.125Z,5504
2017-05-15T12:57:40.800Z,6256
2017-05-15T12:58:26.207Z,7568
2017-05-15T12:59:26.235Z,7584
2017-05-15T13:00:25.973Z,7532
2017-05-15T13:01:26.293Z,7452
2017-05-15T13:02:26.015Z,5260
2017-05-15T13:03:26.347Z,6084
2017-05-15T13:04:26.378Z,6036
2017-05-15T13:05:26.410Z,7512
2017-05-15T13:08:26.219Z,7288
2017-05-15T13:09:26.527Z,7220
2017-05-15T13:10:26.242Z,7392
2017-05-15T13:12:41.225Z,7052
2017-05-15T13:13:26.628Z,6816
2017-05-15T13:14:26.356Z,6524
2017-05-15T13:15:26.428Z,6664
2017-05-15T13:16:26.719Z,4464
2017-05-15T13:17:26.740Z,6676
2017-05-15T13:18:26.465Z,6188
2017-05-15T13:19:26.193Z,5588
2017-05-15T13:20:26.523Z,6040
2017-05-15T13:21:26.865Z,5216
2017-05-15T13:22:26.885Z,4092
2017-05-15T13:23:26.961Z,4308
2017-05-15T13:24:26.939Z,4180
2017-05-15T13:25:26.667Z,4612
2017-05-15T13:26:26.993Z,4376
2017-05-15T13:28:27.047Z,4644
2017-05-15T13:29:27.075Z,6808
2017-05-15T13:30:27.105Z,6980
2017-05-15T13:31:27.135Z,7028
2017-05-15T13:32:27.160Z,6900
2017-05-15T13:33:27.197Z,6840
2017-05-15T13:34:27.216Z,5500
2017-05-15T13:35:26.952Z,4116
2017-05-15T13:36:26.968Z,6220
2017-05-15T13:37:27.301Z,6124
2017-05-15T13:38:27.372Z,6092
2017-05-15T13:39:27.354Z,6112
2017-05-15T13:40:27.077Z,6068
2017-05-15T13:41:42.026Z,6104
2017-05-15T13:42:27.440Z,6132
2017-05-15T13:43:27.469Z,6080
2017-05-15T13:44:42.109Z,3436
2017-05-15T13:45:27.520Z,4716
2017-05-15T13:46:27.247Z,6172
2017-05-15T13:47:26.975Z,6040
2017-05-15T13:48:27.601Z,6168
2017-05-15T13:49:27.633Z,6152
2017-05-15T13:50:27.656Z,6128
2017-05-15T13:51:27.383Z,6124
2017-05-15T13:52:27.412Z,6084
2017-05-15T13:54:27.775Z,6004
2017-05-15T13:55:27.797Z,6012
2017-05-15T13:56:27.831Z,6064
2017-05-15T13:57:42.468Z,6112
2017-05-15T13:58:42.496Z,6244
2017-05-15T14:00:42.550Z,6388
2017-05-15T14:01:27.975Z,6464
2017-05-15T14:03:42.640Z,6484
2017-05-15T14:06:35.116Z,6432
2017-05-15T14:06:51.291Z,6428
2017-05-15T14:07:51.315Z,6448
2017-05-15T14:10:11.172Z,6648
2017-05-15T14:10:56.886Z,6772
2017-05-15T14:12:11.224Z,6700
2017-05-15T14:12:56.940Z,6616
2017-05-15T14:13:56.966Z,6628
2017-05-15T14:14:56.990Z,6804
2017-05-15T14:15:57.020Z,6820
2017-05-15T14:16:56.792Z,6788
2017-05-15T14:17:57.074Z,6856
2017-05-15T14:19:11.721Z,6920
2017-05-15T14:19:57.136Z,6940
2017-05-15T14:20:57.157Z,6968
2017-05-15T14:21:56.883Z,7012
2017-05-15T14:23:57.240Z,6968
2017-05-15T14:24:57.268Z,6796
2017-05-15T14:25:57.298Z,6744
2017-05-15T14:27:26.565Z,6604
2017-05-15T14:27:57.351Z,6604
2017-05-15T14:28:57.376Z,6492
2017-05-15T14:29:57.407Z,6552
2017-05-15T14:30:57.436Z,4124
2017-05-15T14:31:57.462Z,4428
2017-05-15T14:32:57.490Z,7440
2017-05-15T14:33:57.517Z,4840
2017-05-15T14:36:12.190Z,7668
2017-05-15T14:37:12.264Z,7628
2017-05-15T14:37:57.326Z,4992
2017-05-15T14:38:57.660Z,4684
2017-05-15T14:39:57.433Z,4416
2017-05-15T14:40:57.417Z,4276
2017-05-15T14:41:57.743Z,4100
2017-05-15T14:43:57.492Z,4832
2017-05-15T14:44:57.822Z,3964